createdAt,value
2024-05-09T00:00:35.751Z,10.11
2024-05-09T00:03:10.391Z,10.85
2024-05-09T00:05:40.715Z,10.60
2024-05-09T00:08:09.870Z,10.56
2024-05-09T00:10:39.333Z,11.20
2024-05-09T00:13:08.078Z,11.33
2024-05-09T00:15:36.162Z,10.78
2024-05-09T00:18:05.385Z,10.81
2024-05-09T00:20:38.155Z,11.33
2024-05-09T00:23:09.265Z,9.58
2024-05-09T00:25:37.123Z,10.29
2024-05-09T00:28:04.128Z,11.13
2024-05-09T00:30:34.709Z,11.30
2024-05-09T00:33:08.765Z,10.73
2024-05-09T00:35:37.208Z,11.09
2024-05-09T00:38:04.664Z,10.53
2024-05-09T00:40:40.020Z,10.00
2024-05-09T00:43:09.929Z,10.20
2024-05-09T00:45:36.888Z,10.61
2024-05-09T00:48:07.084Z,10.18
2024-05-09T00:50:37.810Z,9.52
2024-05-09T00:53:06.647Z,9.87
2024-05-09T00:55:35.988Z,9.85
2024-05-09T00:58:05.012Z,10.00
2024-05-09T01:00:38.425Z,9.74
2024-05-09T01:03:08.707Z,9.94
2024-05-09T01:05:39.294Z,10.57
2024-05-09T01:08:06.953Z,9.54
2024-05-09T01:10:35.421Z,9.72
2024-05-09T01:13:04.290Z,11.33
2024-05-09T01:15:31.815Z,11.60
2024-05-09T01:18:02.983Z,11.39
2024-05-09T01:20:39.599Z,11.71
2024-05-09T01:23:10.196Z,13.01
2024-05-09T01:25:37.494Z,12.60
2024-05-09T01:28:04.652Z,12.31
2024-05-09T01:30:35.158Z,12.13
2024-05-09T01:33:06.171Z,11.62
2024-05-09T01:35:34.690Z,11.68
2024-05-09T01:38:01.647Z,10.90
2024-05-09T01:40:37.065Z,11.19
2024-05-09T01:43:10.954Z,8.44
2024-05-09T01:45:39.951Z,9.38
2024-05-09T01:48:08.154Z,10.56
2024-05-09T01:50:39.607Z,10.65
2024-05-09T01:53:14.381Z,11.32
2024-05-09T01:55:41.966Z,11.89
2024-05-09T01:58:09.572Z,11.15
2024-05-09T02:00:40.816Z,11.61
2024-05-09T02:03:13.904Z,11.44
2024-05-09T02:05:44.723Z,11.62
2024-05-09T02:08:16.583Z,11.27
2024-05-09T02:10:44.467Z,11.50
2024-05-09T02:13:11.554Z,11.38
2024-05-09T02:15:38.615Z,11.47
2024-05-09T02:18:06.249Z,11.61
2024-05-09T02:20:36.442Z,10.81
2024-05-09T02:23:06.410Z,10.07
2024-05-09T02:25:33.674Z,11.39
2024-05-09T02:28:00.510Z,11.04
2024-05-09T02:30:37.780Z,11.08
2024-05-09T02:33:09.015Z,12.33
2024-05-09T02:35:36.960Z,12.22
2024-05-09T02:38:04.553Z,12.49
2024-05-09T02:40:37.523Z,11.77
2024-05-09T02:43:07.903Z,10.60
2024-05-09T02:45:35.176Z,11.76
2024-05-09T02:48:02.628Z,12.51
2024-05-09T02:50:36.956Z,12.13
2024-05-09T02:53:10.789Z,12.33
2024-05-09T02:55:38.333Z,11.64
2024-05-09T02:58:07.390Z,11.17
2024-05-09T03:00:38.959Z,11.86
2024-05-09T03:03:09.855Z,11.31
2024-05-09T03:05:38.615Z,10.35
2024-05-09T03:08:05.980Z,10.10
2024-05-09T03:10:36.302Z,10.70
2024-05-09T03:13:08.451Z,11.36
2024-05-09T03:15:35.604Z,11.81
2024-05-09T03:18:03.367Z,10.87
2024-05-09T03:20:34.355Z,11.19
2024-05-09T03:23:03.368Z,11.24
2024-05-09T03:25:30.365Z,11.74
2024-05-09T03:27:57.180Z,11.93
2024-05-09T03:30:35.954Z,12.65
2024-05-09T03:33:13.508Z,12.23
2024-05-09T03:35:41.483Z,11.56
2024-05-09T03:38:08.362Z,11.61
2024-05-09T03:40:35.577Z,12.82
2024-05-09T03:43:02.397Z,12.99
2024-05-09T03:45:29.153Z,12.07
2024-05-09T03:47:56.148Z,12.10
2024-05-09T03:50:30.034Z,9.72
2024-05-09T03:53:01.911Z,11.95
2024-05-09T03:55:28.896Z,12.87
2024-05-09T03:57:55.703Z,13.76
2024-05-09T04:00:31.076Z,14.16
2024-05-09T04:03:06.058Z,14.84
2024-05-09T04:05:35.019Z,15.04
2024-05-09T04:08:02.143Z,15.39
2024-05-09T04:10:33.550Z,14.24
2024-05-09T04:13:02.809Z,13.85
2024-05-09T04:15:29.898Z,14.31
2024-05-09T04:17:56.924Z,14.71
2024-05-09T04:20:33.291Z,13.59
2024-05-09T04:23:12.260Z,13.90
2024-05-09T04:25:44.587Z,13.37
2024-05-09T04:28:11.908Z,13.75
2024-05-09T04:30:40.976Z,13.15
2024-05-09T04:33:11.179Z,13.34
2024-05-09T04:35:42.285Z,13.85
2024-05-09T04:38:09.607Z,14.21
2024-05-09T04:40:37.552Z,14.09
2024-05-09T04:43:06.220Z,14.41
2024-05-09T04:45:33.397Z,14.05
2024-05-09T04:48:00.642Z,12.92
2024-05-09T04:50:36.620Z,13.23
2024-05-09T04:53:10.334Z,13.07
2024-05-09T04:55:38.575Z,13.79
2024-05-09T04:58:08.867Z,13.78
2024-05-09T05:00:38.742Z,13.77
2024-05-09T05:03:10.256Z,14.03
2024-05-09T05:05:43.634Z,14.39
2024-05-09T05:08:20.360Z,14.12
2024-05-09T05:10:48.899Z,14.17
2024-05-09T05:13:20.993Z,14.38
2024-05-09T05:15:51.042Z,14.04
2024-05-09T05:18:18.522Z,14.97
2024-05-09T05:20:45.823Z,16.23
2024-05-09T05:23:15.013Z,14.79
2024-05-09T05:25:42.922Z,14.71
2024-05-09T05:28:10.677Z,14.85
2024-05-09T05:30:38.563Z,14.71
2024-05-09T05:33:07.281Z,15.44
2024-05-09T05:35:36.055Z,15.73
2024-05-09T05:38:03.662Z,15.29
2024-05-09T05:40:36.925Z,15.74
2024-05-09T05:43:06.146Z,16.06
2024-05-09T05:45:32.931Z,16.48
2024-05-09T05:48:00.299Z,17.51
2024-05-09T05:50:32.980Z,17.51
2024-05-09T05:53:03.522Z,18.68
2024-05-09T05:55:30.400Z,20.19
2024-05-09T05:57:57.286Z,20.51
2024-05-09T06:00:30.075Z,20.14
2024-05-09T06:03:05.080Z,21.62
2024-05-09T06:05:32.488Z,22.33
2024-05-09T06:07:59.691Z,22.28
2024-05-09T06:10:36.727Z,22.52
2024-05-09T06:13:06.095Z,22.75
2024-05-09T06:15:32.881Z,24.99
2024-05-09T06:17:59.744Z,25.69
2024-05-09T06:20:34.847Z,26.01
2024-05-09T06:23:04.989Z,26.06
2024-05-09T06:25:31.968Z,26.90
2024-05-09T06:28:00.437Z,26.28
2024-05-09T06:30:36.580Z,25.83
2024-05-09T06:33:10.622Z,25.10
2024-05-09T06:35:39.051Z,25.95
2024-05-09T06:38:08.780Z,26.20
2024-05-09T06:40:38.748Z,25.95
2024-05-09T06:43:14.532Z,25.44
2024-05-09T06:45:42.064Z,24.52
2024-05-09T06:48:09.473Z,24.89
2024-05-09T06:50:38.550Z,25.09
2024-05-09T06:53:07.495Z,25.02
2024-05-09T06:55:34.695Z,25.38
2024-05-09T06:58:01.509Z,25.54
2024-05-09T07:00:35.699Z,24.87
2024-05-09T07:03:11.056Z,24.00
2024-05-09T07:05:39.031Z,24.08
2024-05-09T07:08:06.866Z,24.37
2024-05-09T07:10:36.143Z,23.96
2024-05-09T07:13:10.879Z,23.58
2024-05-09T07:15:38.061Z,23.41
2024-05-09T07:18:11.914Z,23.89
2024-05-09T07:20:40.465Z,23.85
2024-05-09T07:23:12.129Z,23.66
2024-05-09T07:25:40.272Z,23.61
2024-05-09T07:28:15.355Z,23.18
2024-05-09T07:30:42.984Z,22.47
2024-05-09T07:33:15.533Z,21.76
2024-05-09T07:35:42.502Z,20.43
2024-05-09T07:38:09.410Z,20.45
2024-05-09T07:40:37.150Z,19.43
2024-05-09T07:43:08.419Z,19.82
2024-05-09T07:53:36.718Z,19.29
2024-05-09T07:55:56.360Z,21.01
2024-05-09T07:58:27.509Z,19.63
2024-05-09T08:00:54.815Z,18.55
2024-05-09T08:03:22.636Z,18.57
2024-05-09T08:05:49.806Z,17.92
2024-05-09T08:08:16.718Z,17.59
2024-05-09T08:10:43.707Z,16.13
2024-05-09T08:13:10.716Z,16.07
2024-05-09T08:15:38.175Z,16.75
2024-05-09T08:18:11.598Z,17.17
2024-05-09T08:20:39.755Z,17.13
2024-05-09T08:23:07.003Z,15.31
2024-05-09T08:25:33.781Z,14.45
2024-05-09T08:28:00.778Z,14.97
2024-05-09T08:30:33.687Z,15.73
2024-05-09T08:33:04.985Z,14.88
2024-05-09T08:35:32.670Z,15.65
2024-05-09T08:37:59.760Z,17.05
2024-05-09T08:40:34.117Z,16.64
2024-05-09T08:43:07.856Z,16.91
2024-05-09T08:45:36.218Z,16.70
2024-05-09T08:48:07.659Z,16.20
2024-05-09T08:50:39.200Z,16.49
2024-05-09T08:53:07.841Z,17.19
2024-05-09T08:55:37.416Z,16.97
2024-05-09T08:58:07.624Z,16.53
2024-05-09T09:00:37.647Z,17.25
2024-05-09T09:03:09.134Z,17.43
2024-05-09T09:05:39.711Z,17.09
2024-05-09T09:08:08.963Z,17.61
2024-05-09T09:10:39.633Z,17.33
2024-05-09T09:13:09.590Z,17.65
2024-05-09T09:15:47.860Z,17.02
2024-05-09T09:18:16.528Z,16.71
2024-05-09T09:20:44.336Z,16.99
2024-05-09T09:23:11.204Z,16.55
2024-05-09T09:25:41.012Z,16.04
2024-05-09T09:28:09.253Z,16.14
2024-05-09T09:30:40.995Z,15.65
2024-05-09T09:33:12.005Z,15.71
2024-05-09T09:35:40.531Z,15.68
2024-05-09T09:38:10.056Z,14.55
2024-05-09T09:40:42.987Z,14.98
2024-05-09T09:43:22.107Z,15.09
2024-05-09T09:45:55.332Z,15.17
2024-05-09T09:48:23.108Z,15.46
2024-05-09T09:50:52.338Z,15.72
2024-05-09T09:53:19.747Z,15.63
2024-05-09T09:55:48.228Z,15.66
2024-05-09T09:58:17.323Z,14.99
2024-05-09T10:00:45.132Z,14.77
2024-05-09T10:03:12.277Z,14.24
2024-05-09T10:05:42.190Z,13.81
2024-05-09T10:08:12.453Z,12.96
2024-05-09T10:10:40.328Z,13.53
2024-05-09T10:13:08.323Z,13.02
2024-05-09T10:15:51.971Z,12.90
2024-05-09T10:18:28.081Z,12.34
2024-05-09T10:20:57.776Z,12.53
2024-05-09T10:23:30.260Z,11.94
2024-05-09T10:26:01.407Z,11.34
2024-05-09T10:28:29.840Z,11.78
2024-05-09T10:31:16.365Z,11.39
2024-05-09T10:33:49.386Z,10.97
2024-05-09T10:36:26.652Z,11.49
2024-05-09T10:38:54.912Z,10.88
2024-05-09T10:41:23.476Z,11.84
2024-05-09T10:43:51.435Z,12.37
2024-05-09T10:46:21.463Z,11.83
2024-05-09T10:48:48.922Z,11.94
2024-05-09T10:51:17.956Z,11.27
2024-05-09T10:53:46.261Z,12.46
2024-05-09T10:56:17.006Z,13.78
2024-05-09T10:58:44.184Z,14.10
2024-05-09T11:01:11.174Z,14.90
2024-05-09T11:03:39.570Z,14.52
2024-05-09T11:06:07.399Z,14.92
2024-05-09T11:08:36.384Z,13.56
2024-05-09T11:11:07.496Z,14.49
2024-05-09T11:13:36.506Z,14.00
2024-05-09T11:16:04.627Z,12.83
2024-05-09T11:18:36.184Z,12.49
2024-05-09T11:21:13.472Z,12.79
2024-05-09T11:23:40.840Z,13.31
2024-05-09T11:26:07.735Z,13.35
2024-05-09T11:28:34.900Z,12.32
2024-05-09T11:31:10.450Z,12.90
2024-05-09T11:33:43.740Z,12.31
2024-05-09T11:36:11.439Z,14.26
2024-05-09T11:38:38.204Z,14.81
2024-05-09T11:41:05.802Z,16.30
2024-05-09T11:43:33.513Z,16.63
2024-05-09T11:46:01.058Z,16.90
2024-05-09T11:48:28.510Z,16.17
2024-05-09T11:50:56.162Z,17.09
2024-05-09T11:53:23.084Z,17.39
2024-05-09T11:55:50.081Z,18.25
2024-05-09T11:58:18.367Z,16.69
2024-05-09T12:00:46.239Z,16.41
2024-05-09T12:03:13.375Z,16.73
2024-05-09T12:05:40.414Z,18.17
2024-05-09T12:08:07.714Z,17.22
2024-05-09T12:10:36.231Z,15.15
2024-05-09T12:13:05.675Z,15.69
2024-05-09T12:15:36.432Z,15.68
2024-05-09T12:18:04.795Z,16.24
2024-05-09T12:20:37.365Z,16.40
2024-05-09T12:23:07.877Z,15.71
2024-05-09T12:25:36.419Z,16.07
2024-05-09T12:28:04.137Z,17.19
2024-05-09T12:30:36.790Z,15.89
2024-05-09T12:33:12.088Z,15.88
2024-05-09T12:35:39.936Z,16.88
2024-05-09T12:38:06.693Z,16.26
2024-05-09T12:40:36.994Z,17.04
2024-05-09T12:43:10.127Z,17.35
2024-05-09T12:45:38.540Z,16.69
2024-05-09T12:48:08.419Z,17.28
2024-05-09T12:50:36.838Z,17.80
2024-05-09T12:53:04.854Z,16.82
2024-05-09T12:55:41.006Z,15.90
2024-05-09T12:58:16.488Z,17.19
2024-05-09T13:00:44.348Z,17.38
2024-05-09T13:03:11.488Z,17.49
2024-05-09T13:05:41.220Z,17.04
2024-05-09T13:08:08.336Z,16.83
2024-05-09T13:10:35.290Z,16.76
2024-05-09T13:13:02.448Z,18.05
2024-05-09T13:15:34.900Z,18.26
2024-05-09T13:18:03.645Z,17.87
2024-05-09T13:20:34.135Z,17.27
2024-05-09T13:23:07.902Z,18.25
2024-05-09T13:25:36.295Z,17.44
2024-05-09T13:28:04.435Z,17.41
2024-05-09T13:30:39.201Z,17.91
2024-05-09T13:33:13.455Z,18.22
2024-05-09T13:35:47.680Z,17.95
2024-05-09T13:38:18.721Z,17.25
2024-05-09T13:40:45.911Z,17.59
2024-05-09T13:43:13.343Z,18.01
2024-05-09T13:45:40.320Z,19.83
2024-05-09T13:48:09.611Z,18.64
2024-05-09T13:50:37.238Z,18.11
2024-05-09T13:53:06.553Z,17.56
2024-05-09T13:55:35.136Z,16.51
2024-05-09T13:58:02.605Z,16.72
2024-05-09T14:00:42.040Z,16.24
2024-05-09T14:03:14.657Z,17.96
2024-05-09T14:05:42.113Z,17.09
2024-05-09T14:08:09.455Z,16.80
2024-05-09T14:10:36.417Z,17.13
2024-05-09T14:13:03.341Z,17.05
2024-05-09T14:15:30.339Z,17.33
2024-05-09T14:17:57.471Z,17.90
2024-05-09T14:20:30.875Z,18.68
2024-05-09T14:23:00.353Z,17.90
2024-05-09T14:25:28.792Z,17.09
2024-05-09T14:27:58.131Z,18.51
2024-05-09T14:30:34.078Z,17.47
2024-05-09T14:33:05.085Z,17.72
2024-05-09T14:35:32.333Z,18.39
2024-05-09T14:37:59.341Z,18.98
2024-05-09T14:40:36.666Z,18.80
2024-05-09T14:43:08.964Z,19.58
2024-05-09T14:45:35.991Z,19.63
2024-05-09T14:48:03.853Z,19.11
2024-05-09T14:50:36.222Z,18.29
2024-05-09T14:53:12.906Z,17.95
2024-05-09T14:55:42.142Z,17.56
2024-05-09T14:58:11.403Z,17.26
2024-05-09T15:00:45.779Z,17.28
2024-05-09T15:03:16.854Z,16.70
2024-05-09T15:05:45.203Z,18.05
2024-05-09T15:08:12.085Z,17.30
2024-05-09T15:10:39.167Z,16.90
2024-05-09T15:13:08.083Z,17.00
2024-05-09T15:15:37.058Z,16.44
2024-05-09T15:18:05.302Z,14.51
2024-05-09T15:20:36.069Z,15.53
2024-05-09T15:23:06.330Z,17.96
2024-05-09T15:25:35.113Z,17.77
2024-05-09T15:28:02.292Z,18.44
2024-05-09T15:30:32.191Z,17.55
2024-05-09T15:33:01.445Z,17.63
2024-05-09T15:35:28.732Z,18.23
2024-05-09T15:37:56.080Z,18.22
2024-05-09T15:40:31.750Z,18.08
2024-05-09T15:43:05.995Z,16.76
2024-05-09T15:45:34.719Z,14.85
2024-05-09T15:48:03.269Z,14.54
2024-05-09T15:50:37.585Z,14.45
2024-05-09T15:53:08.573Z,16.49
2024-05-09T15:55:36.325Z,16.66
2024-05-09T15:58:04.463Z,17.08
2024-05-09T16:03:01.611Z,18.12
2024-05-09T16:05:28.697Z,19.14
2024-05-09T16:07:55.750Z,18.82
2024-05-09T16:10:26.075Z,19.96
2024-05-09T16:12:59.398Z,19.38
2024-05-09T16:15:26.366Z,20.27
2024-05-09T16:17:53.955Z,21.25
2024-05-09T16:20:29.729Z,21.56
2024-05-09T16:23:05.017Z,21.76
2024-05-09T16:25:31.823Z,23.29
2024-05-09T16:27:58.745Z,22.36
2024-05-09T16:30:32.102Z,24.97
2024-05-09T16:33:03.203Z,24.42
2024-05-09T16:35:30.422Z,24.01
2024-05-09T16:37:57.471Z,25.14
2024-05-09T16:40:34.289Z,26.01
2024-05-09T16:43:06.523Z,24.96
2024-05-09T16:45:33.810Z,25.79
2024-05-09T16:48:01.966Z,27.41
2024-05-09T16:50:33.707Z,26.92
2024-05-09T16:53:03.108Z,25.72
2024-05-09T16:55:30.226Z,26.81
2024-05-09T16:57:58.376Z,28.33
2024-05-09T17:00:35.605Z,27.20
2024-05-09T17:03:09.785Z,27.92
2024-05-09T17:05:37.503Z,28.63
2024-05-09T17:08:05.089Z,28.86
2024-05-09T17:10:34.237Z,28.47
2024-05-09T17:13:04.529Z,29.07
2024-05-09T17:15:33.120Z,29.30
2024-05-09T17:18:00.881Z,31.66
2024-05-09T17:20:33.187Z,31.55
2024-05-09T17:23:04.848Z,30.60
2024-05-09T17:25:32.512Z,31.75
2024-05-09T17:28:06.090Z,31.91
2024-05-09T17:30:36.926Z,32.02
2024-05-09T17:33:07.085Z,30.57
2024-05-09T17:35:35.383Z,30.05
2024-05-09T17:38:02.191Z,30.34
2024-05-09T17:40:33.747Z,29.49
2024-05-09T17:43:04.987Z,29.84
2024-05-09T17:45:32.759Z,29.46
2024-05-09T17:48:00.144Z,29.36
2024-05-09T17:50:34.900Z,28.69
2024-05-09T17:53:04.521Z,29.34
2024-05-09T17:55:31.506Z,29.92
2024-05-09T17:57:58.504Z,30.08
2024-05-09T18:02:55.987Z,30.43
2024-05-09T18:05:22.969Z,31.77
2024-05-09T18:07:50.085Z,31.82
2024-05-09T18:10:25.189Z,32.14
2024-05-09T18:12:56.570Z,32.58
2024-05-09T18:15:23.423Z,31.70
2024-05-09T18:17:51.973Z,32.01
2024-05-09T18:20:28.622Z,31.72
2024-05-09T18:23:04.874Z,31.45
2024-05-09T18:25:31.593Z,31.65
2024-05-09T18:27:58.531Z,31.32
2024-05-09T18:30:32.218Z,31.65
2024-05-09T18:33:02.238Z,31.78
2024-05-09T18:35:29.264Z,32.17
2024-05-09T18:37:56.174Z,31.88
2024-05-09T18:40:31.277Z,31.65
2024-05-09T18:43:02.520Z,31.90
2024-05-09T18:45:29.503Z,32.64
2024-05-09T18:47:56.829Z,33.30
2024-05-09T18:50:32.311Z,32.93
2024-05-09T18:53:05.976Z,32.21
2024-05-09T18:55:32.968Z,32.85
2024-05-09T18:57:59.950Z,31.39
2024-05-09T19:00:33.977Z,31.77
2024-05-09T19:03:08.930Z,31.64
2024-05-09T19:05:38.078Z,31.30
2024-05-09T19:08:05.776Z,32.01
2024-05-09T19:10:35.086Z,32.81
2024-05-09T19:13:08.060Z,31.25
2024-05-09T19:15:38.903Z,31.93
2024-05-09T19:18:06.508Z,32.47
2024-05-09T19:20:36.251Z,30.82
2024-05-09T19:23:05.866Z,30.29
2024-05-09T19:25:33.237Z,29.35
2024-05-09T19:28:00.918Z,28.32
2024-05-09T19:30:36.851Z,27.80
2024-05-09T19:33:09.077Z,28.11
2024-05-09T19:35:36.382Z,25.73
2024-05-09T19:38:03.923Z,24.85
2024-05-09T19:40:33.392Z,26.52
2024-05-09T19:43:03.030Z,27.02
2024-05-09T19:45:30.703Z,26.49
2024-05-09T19:47:58.018Z,27.69
2024-05-09T19:50:36.007Z,25.98
2024-05-09T19:53:08.591Z,25.31
2024-05-09T19:55:35.614Z,26.34
2024-05-09T19:58:05.218Z,26.61
2024-05-09T20:00:39.827Z,26.31
2024-05-09T20:03:09.743Z,26.39
2024-05-09T20:05:37.664Z,27.52
2024-05-09T20:08:05.659Z,26.51
2024-05-09T20:10:35.080Z,26.26
2024-05-09T20:13:05.202Z,25.67
2024-05-09T20:15:35.592Z,27.47
2024-05-09T20:18:03.020Z,28.90
2024-05-09T20:20:37.367Z,30.03
2024-05-09T20:23:08.796Z,29.88
2024-05-09T20:25:35.764Z,32.59
2024-05-09T20:28:03.164Z,31.24
2024-05-09T20:30:32.951Z,29.85
2024-05-09T20:33:07.428Z,34.21
2024-05-09T20:35:35.747Z,33.35
2024-05-09T20:38:03.397Z,32.62
2024-05-09T20:40:35.653Z,34.91
2024-05-09T20:43:06.394Z,30.97
2024-05-09T20:45:33.837Z,33.73
2024-05-09T20:48:01.224Z,32.66
2024-05-09T20:50:36.640Z,33.49
2024-05-09T20:53:14.787Z,31.62
2024-05-09T20:55:43.369Z,30.76
2024-05-09T20:58:10.770Z,32.50
2024-05-09T21:00:41.367Z,32.99
2024-05-09T21:03:12.505Z,30.64
2024-05-09T21:05:40.546Z,30.03
2024-05-09T21:08:07.996Z,31.02
2024-05-09T21:10:36.255Z,31.55
2024-05-09T21:13:04.122Z,31.05
2024-05-09T21:15:31.761Z,30.14
2024-05-09T21:17:59.061Z,28.92
2024-05-09T21:20:31.711Z,30.56
2024-05-09T21:23:00.784Z,30.76
2024-05-09T21:25:27.651Z,32.45
2024-05-09T21:27:54.547Z,33.24
2024-05-09T21:30:32.106Z,33.18
2024-05-09T21:33:12.931Z,30.65
2024-05-09T21:35:42.439Z,30.87
2024-05-09T21:38:09.347Z,30.95
2024-05-09T21:40:37.995Z,30.96
2024-05-09T21:43:07.714Z,30.70
2024-05-09T21:45:36.096Z,31.59
2024-05-09T21:48:04.466Z,30.51
2024-05-09T21:50:38.683Z,31.03
2024-05-09T21:53:08.226Z,31.27
2024-05-09T21:55:35.164Z,31.56
2024-05-09T21:58:02.481Z,33.70
2024-05-09T22:00:35.859Z,33.81
2024-05-09T22:03:06.204Z,31.35
2024-05-09T22:05:33.380Z,32.16
2024-05-09T22:08:00.742Z,33.37
2024-05-09T22:10:33.722Z,34.69
2024-05-09T22:13:03.070Z,34.62
2024-05-09T22:15:30.183Z,34.05
2024-05-09T22:17:57.602Z,34.51
2024-05-09T22:20:33.867Z,33.26
2024-05-09T22:23:04.653Z,33.50
2024-05-09T22:25:32.502Z,35.06
2024-05-09T22:28:01.226Z,36.54
2024-05-09T22:30:35.683Z,36.94
2024-05-09T22:33:11.058Z,36.32
2024-05-09T22:35:39.594Z,34.84
2024-05-09T22:38:06.684Z,34.13
2024-05-09T22:40:43.085Z,33.01
2024-05-09T22:43:23.806Z,32.54
2024-05-09T22:45:52.957Z,30.71
2024-05-09T22:48:20.441Z,29.03
2024-05-09T22:50:47.495Z,27.17
2024-05-09T22:53:14.514Z,25.56
2024-05-09T22:55:41.534Z,26.99
2024-05-09T22:58:08.603Z,31.66
2024-05-09T23:00:35.817Z,32.35
2024-05-09T23:03:03.008Z,32.96
2024-05-09T23:05:32.089Z,34.08
2024-05-09T23:08:00.383Z,33.36
2024-05-09T23:10:32.507Z,33.46
2024-05-09T23:13:03.676Z,33.27
2024-05-09T23:15:30.829Z,34.12
2024-05-09T23:17:58.431Z,33.62
2024-05-09T23:20:35.447Z,33.49
2024-05-09T23:23:08.747Z,29.64
2024-05-09T23:25:37.142Z,29.41
2024-05-09T23:28:04.500Z,32.17
2024-05-09T23:30:37.594Z,32.59
2024-05-09T23:33:08.290Z,35.98
2024-05-09T23:35:35.619Z,35.85
2024-05-09T23:38:02.503Z,34.92
2024-05-09T23:40:37.867Z,34.69
2024-05-09T23:43:08.910Z,35.13
2024-05-09T23:45:36.096Z,36.47
2024-05-09T23:48:03.654Z,34.25
2024-05-09T23:50:35.046Z,28.23
2024-05-09T23:53:05.728Z,29.45
2024-05-09T23:55:33.031Z,34.79
2024-05-09T23:58:00.244Z,34.29
